Terminal Aerodrome Forecast
Issued by NWS

Home | Current Version | Previous Version | Graphics & Text | Print | Product List | Glossary On
Versions: 1 2 3 4 5 6 7 8 9 10 11 12 13 14
080
FTUS43 KOAX 251720
TAFCDR
TAF
KCDR 251720Z 2518/2618 31020G30KT P6SM SCT080
     FM252300 33012KT P6SM SKC
     FM260200 VRB03KT P6SM SKC=

USA.gov is the U.S. government's official web portal to all federal, state and local government web resources and services.